createdAt,value
2018-01-21T00:00:18.289Z,31.93
2018-01-21T00:02:46.787Z,30.83
2018-01-21T00:05:15.245Z,30.43
2018-01-21T00:07:43.598Z,30.77
2018-01-21T00:10:11.961Z,29.07
2018-01-21T00:12:40.710Z,29.83
2018-01-21T00:15:09.082Z,30.67
2018-01-21T00:17:37.572Z,29.47
2018-01-21T00:20:06.312Z,26.43
2018-01-21T00:22:41.540Z,26.20
2018-01-21T00:25:10.301Z,25.53
2018-01-21T00:27:38.664Z,27.00
2018-01-21T00:30:07.040Z,28.47
2018-01-21T00:32:35.413Z,27.67
2018-01-21T00:35:03.796Z,27.23
2018-01-21T00:37:32.155Z,26.40
2018-01-21T00:40:00.521Z,27.07
2018-01-21T00:42:28.930Z,27.07
2018-01-21T00:44:57.297Z,27.17
2018-01-21T00:47:25.769Z,26.63
2018-01-21T00:49:54.183Z,28.53
2018-01-21T00:52:22.528Z,26.73
2018-01-21T00:54:50.905Z,27.53
2018-01-21T00:57:19.252Z,28.60
2018-01-21T00:59:48.105Z,26.10
2018-01-21T01:02:16.460Z,27.00
2018-01-21T01:04:44.833Z,25.97
2018-01-21T01:07:13.192Z,26.60
2018-01-21T01:09:41.552Z,27.50
2018-01-21T01:12:10.291Z,27.13
2018-01-21T01:14:38.667Z,27.17
2018-01-21T01:17:07.029Z,28.33
2018-01-21T01:19:35.556Z,26.20
2018-01-21T01:22:03.915Z,28.37
2018-01-21T01:24:32.280Z,30.60
2018-01-21T01:27:00.648Z,29.57
2018-01-21T01:29:29.025Z,28.53
2018-01-21T01:31:57.386Z,26.87
2018-01-21T01:34:25.731Z,26.40
2018-01-21T01:36:54.100Z,27.30
2018-01-21T01:39:22.572Z,29.20
2018-01-21T01:41:50.985Z,26.63
2018-01-21T01:44:19.896Z,27.90
2018-01-21T01:46:48.265Z,25.70
2018-01-21T01:49:17.103Z,27.33
2018-01-21T01:51:45.470Z,25.33
2018-01-21T01:54:13.819Z,26.90
2018-01-21T01:56:42.597Z,26.30
2018-01-21T01:59:11.336Z,27.50
2018-01-21T02:01:39.707Z,25.03
2018-01-21T02:04:08.068Z,26.37
2018-01-21T02:06:36.423Z,24.23
2018-01-21T02:09:05.312Z,25.60
2018-01-21T02:11:33.665Z,24.40
2018-01-21T02:14:02.131Z,24.73
2018-01-21T02:16:30.611Z,24.07
2018-01-21T02:18:59.079Z,24.00
2018-01-21T02:21:27.526Z,24.00
2018-01-21T02:23:55.866Z,23.70
2018-01-21T02:26:24.446Z,23.17
2018-01-21T02:28:52.800Z,24.43
2018-01-21T02:31:21.152Z,23.80
2018-01-21T02:33:49.568Z,21.43
2018-01-21T02:36:17.979Z,23.10
2018-01-21T02:38:46.738Z,23.33
2018-01-21T02:41:15.096Z,22.83
2018-01-21T02:43:43.444Z,20.73
2018-01-21T02:46:11.842Z,22.30
2018-01-21T02:48:40.238Z,22.10
2018-01-21T02:51:08.597Z,21.90
2018-01-21T02:53:36.969Z,22.23
2018-01-21T02:56:05.367Z,23.67
2018-01-21T02:58:33.842Z,23.07
2018-01-21T03:01:02.191Z,22.87
2018-01-21T03:03:30.955Z,21.53
2018-01-21T03:05:59.418Z,19.47
2018-01-21T03:08:27.769Z,20.70
2018-01-21T03:10:56.183Z,21.10
2018-01-21T03:13:24.567Z,22.07
2018-01-21T03:15:53.033Z,23.83
2018-01-21T03:18:21.490Z,22.83
2018-01-21T03:20:49.868Z,22.10
2018-01-21T03:23:18.265Z,20.83
2018-01-21T03:25:46.678Z,21.80
2018-01-21T03:28:15.152Z,21.53
2018-01-21T03:30:43.549Z,22.10
2018-01-21T03:33:12.319Z,24.80
2018-01-21T03:35:41.203Z,22.00
2018-01-21T03:38:09.549Z,23.87
2018-01-21T03:40:37.919Z,22.43
2018-01-21T03:43:06.284Z,22.80
2018-01-21T03:45:34.652Z,23.60
2018-01-21T03:48:03.082Z,21.97
2018-01-21T03:50:31.569Z,21.80
2018-01-21T03:52:59.922Z,24.10
2018-01-21T03:55:28.283Z,24.00
2018-01-21T03:57:56.636Z,23.40
2018-01-21T04:00:25.415Z,23.33
2018-01-21T04:02:53.876Z,24.47
2018-01-21T04:05:22.243Z,24.07
2018-01-21T04:07:50.740Z,24.33
2018-01-21T04:10:19.098Z,24.87
2018-01-21T04:12:47.479Z,24.37
2018-01-21T04:15:15.860Z,24.87
2018-01-21T04:17:44.218Z,25.50
2018-01-21T04:20:12.613Z,24.83
2018-01-21T04:22:40.964Z,23.80
2018-01-21T04:25:09.376Z,24.83
2018-01-21T04:27:37.748Z,25.20
2018-01-21T04:30:06.145Z,24.43
2018-01-21T04:32:35.040Z,24.90
2018-01-21T04:35:03.507Z,25.33
2018-01-21T04:37:31.878Z,24.33
2018-01-21T04:40:00.253Z,25.30
2018-01-21T04:42:28.612Z,26.20
2018-01-21T04:44:56.976Z,24.70
2018-01-21T04:47:25.385Z,24.87
2018-01-21T04:49:53.789Z,24.93
2018-01-21T04:52:22.167Z,26.53
2018-01-21T04:54:50.564Z,24.17
2018-01-21T04:57:18.931Z,25.77
2018-01-21T04:59:47.287Z,26.07
2018-01-21T05:02:15.724Z,26.63
2018-01-21T05:04:44.172Z,28.80
2018-01-21T05:07:12.635Z,25.20
2018-01-21T05:09:41.016Z,28.73
2018-01-21T05:12:09.496Z,26.63
2018-01-21T05:14:37.847Z,26.97
2018-01-21T05:17:06.259Z,28.23
2018-01-21T05:19:34.632Z,26.43
2018-01-21T05:22:03.020Z,29.60
2018-01-21T05:24:31.399Z,28.20
2018-01-21T05:26:59.947Z,28.77
2018-01-21T05:29:28.301Z,30.93
2018-01-21T05:31:57.069Z,35.57
2018-01-21T05:34:25.437Z,28.10
2018-01-21T05:36:53.903Z,27.80
2018-01-21T05:39:22.262Z,29.17
2018-01-21T05:41:50.649Z,28.37
2018-01-21T05:44:19.007Z,30.47
2018-01-21T05:46:47.417Z,30.63
2018-01-21T05:49:15.778Z,30.13
2018-01-21T05:51:44.139Z,29.00
2018-01-21T05:54:12.501Z,31.30
2018-01-21T05:56:41.310Z,29.03
2018-01-21T05:59:10.437Z,25.30
2018-01-21T06:01:38.843Z,27.40
2018-01-21T06:04:07.192Z,28.83
2018-01-21T06:06:35.630Z,27.53
2018-01-21T06:09:03.980Z,26.07
2018-01-21T06:11:32.438Z,31.50
2018-01-21T06:14:00.824Z,27.10
2018-01-21T06:16:29.285Z,29.10
2018-01-21T06:18:57.638Z,36.40
2018-01-21T06:21:26.023Z,28.67
2018-01-21T06:23:54.383Z,28.47
2018-01-21T06:26:22.804Z,29.73
2018-01-21T06:28:51.158Z,26.87
2018-01-21T06:31:19.526Z,30.47
2018-01-21T06:33:47.884Z,31.30
2018-01-21T06:36:16.660Z,28.80
2018-01-21T06:38:45.017Z,30.10
2018-01-21T06:41:13.461Z,31.80
2018-01-21T06:43:41.812Z,31.27
2018-01-21T06:46:10.606Z,28.20
2018-01-21T06:48:39.363Z,28.63
2018-01-21T06:51:07.819Z,27.67
2018-01-21T06:53:36.198Z,27.77
2018-01-21T06:56:04.589Z,29.23
2018-01-21T06:58:32.947Z,32.97
2018-01-21T07:01:01.310Z,29.57
2018-01-21T07:03:29.668Z,31.80
2018-01-21T07:05:58.510Z,33.80
2018-01-21T07:08:26.892Z,29.27
2018-01-21T07:10:55.253Z,29.77
2018-01-21T07:13:23.618Z,28.70
2018-01-21T07:15:52.029Z,28.30
2018-01-21T07:18:20.411Z,30.80
2018-01-21T07:20:48.927Z,30.63
2018-01-21T07:23:17.694Z,27.50
2018-01-21T07:25:46.064Z,30.53
2018-01-21T07:28:14.711Z,33.53
2018-01-21T07:30:43.071Z,31.90
2018-01-21T07:33:11.433Z,31.13
2018-01-21T07:35:40.201Z,29.00
2018-01-21T07:38:08.553Z,32.67
2018-01-21T07:40:36.950Z,31.20
2018-01-21T07:43:05.332Z,27.60
2018-01-21T07:45:33.899Z,27.07
2018-01-21T07:48:02.324Z,27.60
2018-01-21T07:50:31.085Z,29.80
2018-01-21T07:52:59.435Z,27.60
2018-01-21T07:55:27.807Z,28.87
2018-01-21T07:57:56.305Z,26.77
2018-01-21T08:00:24.775Z,26.47
2018-01-21T08:02:53.181Z,26.57
2018-01-21T08:05:21.632Z,26.13
2018-01-21T08:07:50.020Z,26.03
2018-01-21T08:10:18.412Z,32.30
2018-01-21T08:12:46.778Z,28.63
2018-01-21T08:15:15.162Z,25.57
2018-01-21T08:17:43.533Z,22.00
2018-01-21T08:20:11.921Z,21.90
2018-01-21T08:22:40.267Z,25.80
2018-01-21T08:25:08.615Z,25.27
2018-01-21T08:27:37.048Z,24.47
2018-01-21T08:30:05.436Z,25.23
2018-01-21T08:32:33.813Z,23.57
2018-01-21T08:35:07.791Z,28.07
2018-01-21T08:37:41.540Z,24.97
2018-01-21T08:40:15.402Z,24.33
2018-01-21T08:42:43.831Z,23.50
2018-01-21T08:45:12.184Z,29.43
2018-01-21T08:47:40.568Z,26.13
2018-01-21T08:50:08.927Z,25.60
2018-01-21T08:52:37.330Z,23.90
2018-01-21T08:55:05.806Z,25.67
2018-01-21T08:57:34.152Z,22.97
2018-01-21T09:00:02.503Z,23.07
2018-01-21T09:02:31.343Z,24.43
2018-01-21T09:04:59.731Z,25.70
2018-01-21T09:07:28.091Z,24.40
2018-01-21T09:09:56.486Z,23.80
2018-01-21T09:12:24.855Z,22.40
2018-01-21T09:14:53.247Z,24.13
2018-01-21T09:17:21.603Z,25.30
2018-01-21T09:19:49.971Z,24.57
2018-01-21T09:22:18.418Z,23.63
2018-01-21T09:24:46.764Z,22.80
2018-01-21T09:27:15.128Z,22.87
2018-01-21T09:29:43.471Z,23.97
2018-01-21T09:32:12.283Z,24.97
2018-01-21T09:34:40.808Z,25.10
2018-01-21T09:37:09.171Z,24.07
2018-01-21T09:39:37.525Z,23.80
2018-01-21T09:42:05.993Z,24.37
2018-01-21T09:44:34.420Z,24.87
2018-01-21T09:47:02.858Z,24.57
2018-01-21T09:49:31.215Z,25.77
2018-01-21T09:51:59.963Z,25.00
2018-01-21T09:54:28.324Z,25.37
2018-01-21T09:56:56.699Z,25.63
2018-01-21T09:59:25.071Z,24.60
2018-01-21T10:01:53.435Z,27.23
2018-01-21T10:04:21.780Z,26.27
2018-01-21T10:06:50.622Z,25.30
2018-01-21T10:09:19.109Z,24.33
2018-01-21T10:11:47.516Z,26.23
2018-01-21T10:14:15.867Z,25.63
2018-01-21T10:16:44.249Z,25.77
2018-01-21T10:19:12.597Z,25.90
2018-01-21T10:21:41.004Z,24.47
2018-01-21T10:24:09.360Z,26.87
2018-01-21T10:26:37.867Z,26.07
2018-01-21T10:29:06.224Z,26.30
2018-01-21T10:31:34.583Z,27.40
2018-01-21T10:34:03.464Z,26.10
2018-01-21T10:36:32.309Z,27.23
2018-01-21T10:39:00.647Z,25.53
2018-01-21T10:41:29.003Z,25.20
2018-01-21T10:43:57.745Z,27.00
2018-01-21T10:46:26.119Z,25.17
2018-01-21T10:48:54.476Z,26.60
2018-01-21T10:51:22.832Z,26.40
2018-01-21T10:53:51.673Z,28.70
2018-01-21T10:56:20.052Z,26.83
2018-01-21T10:58:48.395Z,25.23
2018-01-21T11:01:16.922Z,28.07
2018-01-21T11:03:45.288Z,24.70
2018-01-21T11:06:13.640Z,28.53
2018-01-21T11:08:42.060Z,27.97
2018-01-21T11:11:10.421Z,27.20
2018-01-21T11:13:38.770Z,29.77
2018-01-21T11:16:07.132Z,26.33
2018-01-21T11:18:35.894Z,27.00
2018-01-21T11:21:04.251Z,25.30
2018-01-21T11:23:32.604Z,24.20
2018-01-21T11:26:00.980Z,24.57
2018-01-21T11:28:29.336Z,25.77
2018-01-21T11:30:58.113Z,22.83
2018-01-21T11:33:26.857Z,24.00
2018-01-21T11:35:55.251Z,30.60
2018-01-21T11:38:23.619Z,33.43
2018-01-21T11:40:52.084Z,66.67
2018-01-21T11:43:20.502Z,30.37
2018-01-21T11:45:49.104Z,49.90
2018-01-21T11:48:17.955Z,79.70
2018-01-21T11:50:46.331Z,29.30
2018-01-21T11:53:14.690Z,32.63
2018-01-21T11:55:43.046Z,25.27
2018-01-21T11:58:11.395Z,30.53
2018-01-21T12:00:39.758Z,31.30
2018-01-21T12:03:08.124Z,31.30
2018-01-21T12:05:36.484Z,40.83
2018-01-21T12:08:04.826Z,39.90
2018-01-21T12:10:33.593Z,29.33
2018-01-21T12:13:02.039Z,32.47
2018-01-21T12:15:30.425Z,34.90
2018-01-21T12:17:58.786Z,31.10
2018-01-21T12:20:27.156Z,36.33
2018-01-21T12:22:55.559Z,33.70
2018-01-21T12:25:23.927Z,36.97
2018-01-21T12:27:52.336Z,28.07
2018-01-21T12:30:20.707Z,29.47
2018-01-21T12:32:49.076Z,27.00
2018-01-21T12:35:17.520Z,29.67
2018-01-21T12:37:45.892Z,30.17
2018-01-21T12:40:14.661Z,30.00
2018-01-21T12:42:43.003Z,29.23
2018-01-21T12:45:11.360Z,30.30
2018-01-21T12:47:39.756Z,29.23
2018-01-21T12:50:08.113Z,31.03
2018-01-21T12:52:36.454Z,30.73
2018-01-21T12:55:05.226Z,28.60
2018-01-21T12:57:33.578Z,29.07
2018-01-21T13:00:01.925Z,30.27
2018-01-21T13:02:30.285Z,27.07
2018-01-21T13:04:59.121Z,27.80
2018-01-21T13:07:27.517Z,26.70
2018-01-21T13:09:55.870Z,27.47
2018-01-21T13:12:24.257Z,28.20
2018-01-21T13:14:52.600Z,26.67
2018-01-21T13:17:21.021Z,26.70
2018-01-21T13:19:49.371Z,25.50
2018-01-21T13:22:17.736Z,28.23
2018-01-21T13:24:46.087Z,31.80
2018-01-21T13:27:14.451Z,30.83
2018-01-21T13:29:42.808Z,31.83
2018-01-21T13:32:11.160Z,30.83
2018-01-21T13:37:14.307Z,27.90
2018-01-21T13:39:42.667Z,28.10
2018-01-21T13:42:11.034Z,28.00
2018-01-21T13:44:39.380Z,26.83
2018-01-21T13:47:08.522Z,26.97
2018-01-21T13:49:38.408Z,33.27
2018-01-21T13:52:08.564Z,28.17
2018-01-21T13:54:37.025Z,28.27
2018-01-21T13:57:07.194Z,40.50
2018-01-21T13:59:36.188Z,34.00
2018-01-21T14:02:04.958Z,28.60
2018-01-21T14:04:35.131Z,28.40
2018-01-21T14:07:05.504Z,25.93
2018-01-21T14:09:34.167Z,26.57
2018-01-21T14:12:04.833Z,28.33
2018-01-21T14:14:33.770Z,24.43
2018-01-21T14:17:02.484Z,24.17
2018-01-21T14:19:31.581Z,22.87
2018-01-21T14:22:01.671Z,27.63
2018-01-21T14:24:30.666Z,25.87
2018-01-21T14:26:59.160Z,22.90
2018-01-21T14:29:28.753Z,26.87
2018-01-21T14:31:57.119Z,24.60
2018-01-21T14:34:26.058Z,25.30
2018-01-21T14:36:54.873Z,23.67
2018-01-21T14:39:23.233Z,25.70
2018-01-21T14:41:54.136Z,24.30
2018-01-21T14:44:22.566Z,21.87
2018-01-21T14:46:51.301Z,25.30
2018-01-21T14:49:21.710Z,25.87
2018-01-21T14:51:50.470Z,26.40
2018-01-21T14:54:18.825Z,26.60
2018-01-21T14:56:47.238Z,28.43
2018-01-21T14:59:16.325Z,28.60
2018-01-21T15:01:46.684Z,23.87
2018-01-21T15:04:15.353Z,25.93
2018-01-21T15:06:45.498Z,28.17
2018-01-21T15:09:14.987Z,24.07
2018-01-21T15:11:43.570Z,25.60
2018-01-21T15:14:13.347Z,23.27
2018-01-21T15:16:43.465Z,27.30
2018-01-21T15:19:12.411Z,29.90
2018-01-21T15:21:41.118Z,30.30
2018-01-21T15:24:11.396Z,31.43
2018-01-21T15:26:40.511Z,30.07
2018-01-21T15:29:09.928Z,29.00
2018-01-21T15:31:38.745Z,27.57
2018-01-21T15:34:07.498Z,27.73
2018-01-21T15:36:36.794Z,29.67
2018-01-21T15:39:05.492Z,29.83
2018-01-21T15:41:33.904Z,28.03
2018-01-21T15:44:02.853Z,28.33
2018-01-21T15:46:33.037Z,27.27
2018-01-21T15:49:02.707Z,31.90
2018-01-21T15:51:32.582Z,31.20
2018-01-21T15:54:01.719Z,32.57
2018-01-21T15:56:31.448Z,27.17
2018-01-21T15:59:00.133Z,25.73
2018-01-21T16:01:29.015Z,30.40
2018-01-21T16:03:57.432Z,26.30
2018-01-21T16:06:26.276Z,27.03
2018-01-21T16:08:54.683Z,28.33
2018-01-21T16:11:23.032Z,26.37
2018-01-21T16:13:51.380Z,25.93
2018-01-21T16:16:19.728Z,25.80
2018-01-21T16:18:48.073Z,27.73
2018-01-21T16:21:16.429Z,27.97
2018-01-21T16:23:44.776Z,30.80
2018-01-21T16:26:13.613Z,29.80
2018-01-21T16:28:41.964Z,25.20
2018-01-21T16:31:10.344Z,29.13
2018-01-21T16:33:38.699Z,33.57
2018-01-21T16:36:07.299Z,30.70
2018-01-21T16:41:43.101Z,31.03
2018-01-21T16:44:11.451Z,37.47
2018-01-21T16:46:39.861Z,45.23
2018-01-21T16:49:08.229Z,26.50
2018-01-21T16:51:36.584Z,27.30
2018-01-21T16:54:04.931Z,24.80
2018-01-21T16:56:33.374Z,30.30
2018-01-21T16:59:01.720Z,35.80
2018-01-21T17:01:30.088Z,30.33
2018-01-21T17:03:58.847Z,25.90
2018-01-21T17:06:27.201Z,27.43
2018-01-21T17:08:55.552Z,25.60
2018-01-21T17:11:23.904Z,25.40
2018-01-21T17:13:52.926Z,27.07
2018-01-21T17:16:21.298Z,27.57
2018-01-21T17:18:49.706Z,25.67
2018-01-21T17:21:18.068Z,24.07
2018-01-21T17:23:46.420Z,25.03
2018-01-21T17:26:15.171Z,26.83
2018-01-21T17:28:43.525Z,27.20
2018-01-21T17:31:11.914Z,27.77
2018-01-21T17:33:40.467Z,26.07
2018-01-21T17:36:10.211Z,25.67
2018-01-21T17:38:38.898Z,25.30
2018-01-21T17:41:08.448Z,25.33
2018-01-21T17:43:37.059Z,30.87
2018-01-21T17:46:05.433Z,31.03
2018-01-21T17:48:33.860Z,31.60
2018-01-21T17:51:02.215Z,30.17
2018-01-21T17:53:30.773Z,33.07
2018-01-21T17:55:59.199Z,32.00
2018-01-21T17:58:27.664Z,35.63
2018-01-21T18:00:56.025Z,33.30
2018-01-21T18:03:24.385Z,31.90
2018-01-21T18:05:52.817Z,34.73
2018-01-21T18:08:21.174Z,33.00
2018-01-21T18:10:49.530Z,33.83
2018-01-21T18:13:17.895Z,32.67
2018-01-21T18:15:46.253Z,33.07
2018-01-21T18:18:15.016Z,34.07
2018-01-21T18:20:43.411Z,33.60
2018-01-21T18:23:11.989Z,32.17
2018-01-21T18:25:40.340Z,32.00
2018-01-21T18:28:08.681Z,30.63
2018-01-21T18:30:37.100Z,32.03
2018-01-21T18:33:05.447Z,33.27
2018-01-21T18:35:33.807Z,33.47
2018-01-21T18:38:02.568Z,32.90
2018-01-21T18:40:31.028Z,31.73
2018-01-21T18:42:59.390Z,31.60
2018-01-21T18:45:27.771Z,29.80
2018-01-21T18:47:56.115Z,33.20
2018-01-21T18:50:24.476Z,29.80
2018-01-21T18:52:53.464Z,31.63
2018-01-21T18:55:21.806Z,30.30
2018-01-21T18:57:50.223Z,30.83
2018-01-21T19:00:18.994Z,31.47
2018-01-21T19:02:47.356Z,28.03
2018-01-21T19:05:15.779Z,29.93
2018-01-21T19:07:44.518Z,31.63
2018-01-21T19:10:12.974Z,32.97
2018-01-21T19:12:41.317Z,26.63
2018-01-21T19:15:10.072Z,26.30
2018-01-21T19:17:38.461Z,22.43
2018-01-21T19:20:06.819Z,25.87
2018-01-21T19:22:35.210Z,25.10
2018-01-21T19:25:03.645Z,26.30
2018-01-21T19:27:31.996Z,28.27
2018-01-21T19:30:00.852Z,28.87
2018-01-21T19:32:29.212Z,25.37
2018-01-21T19:34:57.560Z,29.63
2018-01-21T19:37:26.400Z,29.23
2018-01-21T19:39:54.759Z,30.90
2018-01-21T19:42:28.539Z,31.60
2018-01-21T19:44:56.890Z,29.87
2018-01-21T19:47:25.721Z,28.63
2018-01-21T19:49:54.100Z,28.53
2018-01-21T19:52:22.481Z,29.17
2018-01-21T19:54:50.839Z,27.40
2018-01-21T19:57:19.331Z,23.80
2018-01-21T19:59:47.747Z,26.27
2018-01-21T20:02:16.127Z,25.80
2018-01-21T20:04:44.553Z,22.73
2018-01-21T20:07:12.875Z,24.50
2018-01-21T20:09:41.259Z,21.30
2018-01-21T20:12:09.629Z,23.07
2018-01-21T20:14:37.988Z,23.67
2018-01-21T20:17:06.366Z,22.53
2018-01-21T20:19:34.715Z,21.93
2018-01-21T20:22:03.464Z,23.77
2018-01-21T20:24:31.824Z,21.87
2018-01-21T20:27:00.291Z,23.00
2018-01-21T20:29:28.849Z,23.53
2018-01-21T20:31:57.625Z,23.53
2018-01-21T20:34:26.064Z,22.27
2018-01-21T20:36:54.460Z,21.90
2018-01-21T20:39:22.809Z,23.00
2018-01-21T20:41:51.172Z,23.03
2018-01-21T20:44:19.647Z,21.10
2018-01-21T20:46:48.107Z,21.03
2018-01-21T20:49:16.956Z,21.90
2018-01-21T20:51:50.774Z,20.37
2018-01-21T20:54:24.616Z,22.00
2018-01-21T20:56:53.373Z,19.97
2018-01-21T20:59:21.788Z,20.23
2018-01-21T21:01:50.569Z,20.07
2018-01-21T21:04:19.347Z,21.83
2018-01-21T21:06:47.712Z,21.93
2018-01-21T21:09:16.068Z,19.80
2018-01-21T21:11:44.549Z,22.17
2018-01-21T21:14:12.900Z,21.90
2018-01-21T21:16:41.319Z,24.50
2018-01-21T21:19:09.700Z,20.70
2018-01-21T21:21:38.167Z,21.20
2018-01-21T21:24:06.520Z,20.37
2018-01-21T21:26:34.916Z,22.17
2018-01-21T21:29:03.445Z,23.50
2018-01-21T21:31:31.809Z,20.97
2018-01-21T21:34:00.157Z,17.87
2018-01-21T21:36:28.552Z,18.27
2018-01-21T21:38:56.907Z,21.53
2018-01-21T21:41:25.263Z,18.30
2018-01-21T21:43:53.755Z,19.97
2018-01-21T21:46:22.115Z,20.80
2018-01-21T21:48:50.863Z,20.23
2018-01-21T21:51:19.259Z,19.70
2018-01-21T21:53:47.600Z,21.50
2018-01-21T21:56:15.969Z,22.20
2018-01-21T21:58:44.320Z,20.47
2018-01-21T22:01:13.153Z,22.40
2018-01-21T22:03:41.509Z,22.87
2018-01-21T22:06:09.985Z,22.27
2018-01-21T22:08:38.660Z,22.40
2018-01-21T22:11:09.512Z,26.10
2018-01-21T22:13:40.552Z,21.70
2018-01-21T22:16:09.387Z,20.57
2018-01-21T22:18:37.786Z,20.80
2018-01-21T22:21:06.266Z,22.23
2018-01-21T22:23:35.011Z,19.70
2018-01-21T22:26:03.395Z,20.30
2018-01-21T22:28:31.811Z,19.40
2018-01-21T22:31:00.564Z,22.17
2018-01-21T22:33:28.911Z,20.80
2018-01-21T22:35:57.291Z,21.20
2018-01-21T22:38:25.705Z,22.90
2018-01-21T22:40:54.064Z,18.70
2018-01-21T22:43:22.427Z,19.80
2018-01-21T22:45:50.840Z,18.50
2018-01-21T22:48:19.209Z,18.00
2018-01-21T22:50:47.567Z,17.33
2018-01-21T22:53:15.975Z,17.50
2018-01-21T22:55:44.348Z,20.97
2018-01-21T22:58:12.710Z,19.60
2018-01-21T23:00:41.108Z,20.13
2018-01-21T23:03:09.500Z,17.47
2018-01-21T23:05:37.871Z,19.00
2018-01-21T23:08:06.233Z,18.07
2018-01-21T23:10:34.600Z,18.87
2018-01-21T23:13:02.958Z,19.10
2018-01-21T23:15:31.322Z,21.63
2018-01-21T23:18:00.064Z,18.77
2018-01-21T23:23:43.215Z,20.23
2018-01-21T23:26:11.585Z,20.63
2018-01-21T23:28:39.963Z,19.17
2018-01-21T23:31:08.336Z,18.67
2018-01-21T23:33:36.796Z,20.60
2018-01-21T23:36:05.186Z,21.57
2018-01-21T23:38:33.553Z,19.10
2018-01-21T23:41:01.920Z,19.93
2018-01-21T23:43:30.340Z,20.10
2018-01-21T23:45:58.832Z,21.63
2018-01-21T23:48:28.373Z,20.13
2018-01-21T23:50:58.834Z,20.80
2018-01-21T23:53:27.302Z,21.47
2018-01-21T23:55:56.531Z,20.37
2018-01-21T23:58:24.912Z,20.50
